sensor_id;sensor_type;location;lat;lon;timestamp;P1;durP1;ratioP1;P2;durP2;ratioP2
18391;SDS011;9322;50.932;5.318;2022-07-21T00:02:16;20.10;;;10.07;;
18391;SDS011;9322;50.932;5.318;2022-07-21T00:04:42;14.60;;;10.15;;
18391;SDS011;9322;50.932;5.318;2022-07-21T00:07:07;17.30;;;9.88;;
18391;SDS011;9322;50.932;5.318;2022-07-21T00:09:33;14.93;;;9.90;;
18391;SDS011;9322;50.932;5.318;2022-07-21T00:12:00;15.48;;;9.85;;
18391;SDS011;9322;50.932;5.318;2022-07-21T00:14:27;16.70;;;10.90;;
18391;SDS011;9322;50.932;5.318;2022-07-21T00:16:53;16.77;;;10.27;;
18391;SDS011;9322;50.932;5.318;2022-07-21T00:19:19;15.70;;;10.98;;
18391;SDS011;9322;50.932;5.318;2022-07-21T00:21:44;17.77;;;11.43;;
18391;SDS011;9322;50.932;5.318;2022-07-21T00:24:10;15.07;;;9.88;;
18391;SDS011;9322;50.932;5.318;2022-07-21T00:26:36;19.10;;;10.67;;
18391;SDS011;9322;50.932;5.318;2022-07-21T00:29:01;15.88;;;10.65;;
18391;SDS011;9322;50.932;5.318;2022-07-21T00:31:27;16.03;;;11.13;;
18391;SDS011;9322;50.932;5.318;2022-07-21T00:33:53;20.00;;;11.35;;
18391;SDS011;9322;50.932;5.318;2022-07-21T00:36:19;19.63;;;12.67;;
18391;SDS011;9322;50.932;5.318;2022-07-21T00:38:45;22.73;;;11.33;;
18391;SDS011;9322;50.932;5.318;2022-07-21T00:41:11;22.57;;;11.90;;
18391;SDS011;9322;50.932;5.318;2022-07-21T00:43:37;19.38;;;11.18;;
18391;SDS011;9322;50.932;5.318;2022-07-21T00:46:02;19.27;;;11.13;;
18391;SDS011;9322;50.932;5.318;2022-07-21T00:48:28;21.37;;;11.83;;
18391;SDS011;9322;50.932;5.318;2022-07-21T00:50:55;20.20;;;11.77;;
18391;SDS011;9322;50.932;5.318;2022-07-21T00:53:20;18.17;;;11.47;;
18391;SDS011;9322;50.932;5.318;2022-07-21T00:55:46;17.48;;;11.02;;
18391;SDS011;9322;50.932;5.318;2022-07-21T00:58:12;18.83;;;11.47;;
18391;SDS011;9322;50.932;5.318;2022-07-21T01:00:38;19.33;;;11.43;;
18391;SDS011;9322;50.932;5.318;2022-07-21T01:03:04;16.55;;;11.10;;
18391;SDS011;9322;50.932;5.318;2022-07-21T01:05:30;18.05;;;12.57;;
18391;SDS011;9322;50.932;5.318;2022-07-21T01:07:56;19.90;;;12.10;;
18391;SDS011;9322;50.932;5.318;2022-07-21T01:10:27;19.00;;;11.70;;
18391;SDS011;9322;50.932;5.318;2022-07-21T01:12:53;18.08;;;11.60;;
18391;SDS011;9322;50.932;5.318;2022-07-21T01:15:19;19.15;;;12.02;;
18391;SDS011;9322;50.932;5.318;2022-07-21T01:17:45;17.65;;;11.85;;
18391;SDS011;9322;50.932;5.318;2022-07-21T01:20:12;17.13;;;11.65;;
18391;SDS011;9322;50.932;5.318;2022-07-21T01:22:41;19.17;;;12.43;;
18391;SDS011;9322;50.932;5.318;2022-07-21T01:25:08;16.92;;;12.27;;
18391;SDS011;9322;50.932;5.318;2022-07-21T01:27:34;20.02;;;12.38;;
18391;SDS011;9322;50.932;5.318;2022-07-21T01:30:00;18.92;;;12.90;;
18391;SDS011;9322;50.932;5.318;2022-07-21T01:32:27;21.17;;;12.45;;
18391;SDS011;9322;50.932;5.318;2022-07-21T01:34:53;21.58;;;13.02;;
18391;SDS011;9322;50.932;5.318;2022-07-21T01:37:22;22.33;;;13.30;;
18391;SDS011;9322;50.932;5.318;2022-07-21T01:39:51;19.47;;;13.17;;
18391;SDS011;9322;50.932;5.318;2022-07-21T01:42:35;22.27;;;13.33;;
18391;SDS011;9322;50.932;5.318;2022-07-21T01:45:02;21.57;;;13.80;;
18391;SDS011;9322;50.932;5.318;2022-07-21T01:47:28;25.08;;;14.18;;
18391;SDS011;9322;50.932;5.318;2022-07-21T01:49:54;25.17;;;13.80;;
18391;SDS011;9322;50.932;5.318;2022-07-21T01:52:20;22.60;;;14.18;;
18391;SDS011;9322;50.932;5.318;2022-07-21T01:54:46;21.67;;;13.40;;
18391;SDS011;9322;50.932;5.318;2022-07-21T01:57:12;21.47;;;14.40;;
18391;SDS011;9322;50.932;5.318;2022-07-21T01:59:37;23.53;;;15.10;;
18391;SDS011;9322;50.932;5.318;2022-07-21T02:02:03;23.37;;;14.87;;
18391;SDS011;9322;50.932;5.318;2022-07-21T02:04:29;24.07;;;13.67;;
18391;SDS011;9322;50.932;5.318;2022-07-21T02:06:54;25.87;;;14.87;;
18391;SDS011;9322;50.932;5.318;2022-07-21T02:09:20;26.43;;;14.53;;
18391;SDS011;9322;50.932;5.318;2022-07-21T02:11:46;27.40;;;15.47;;
18391;SDS011;9322;50.932;5.318;2022-07-21T02:14:12;25.50;;;15.93;;
18391;SDS011;9322;50.932;5.318;2022-07-21T02:16:37;22.97;;;14.87;;
18391;SDS011;9322;50.932;5.318;2022-07-21T02:19:03;28.70;;;15.93;;
18391;SDS011;9322;50.932;5.318;2022-07-21T02:21:29;23.60;;;15.17;;
18391;SDS011;9322;50.932;5.318;2022-07-21T02:23:54;25.47;;;16.27;;
18391;SDS011;9322;50.932;5.318;2022-07-21T02:26:20;27.10;;;16.27;;
18391;SDS011;9322;50.932;5.318;2022-07-21T02:28:46;27.03;;;16.03;;
18391;SDS011;9322;50.932;5.318;2022-07-21T02:31:12;27.13;;;16.73;;
18391;SDS011;9322;50.932;5.318;2022-07-21T02:33:37;23.90;;;15.68;;
18391;SDS011;9322;50.932;5.318;2022-07-21T02:36:03;30.80;;;16.67;;
18391;SDS011;9322;50.932;5.318;2022-07-21T02:38:29;27.42;;;15.85;;
18391;SDS011;9322;50.932;5.318;2022-07-21T02:40:55;28.75;;;17.33;;
18391;SDS011;9322;50.932;5.318;2022-07-21T02:43:20;30.15;;;16.45;;
18391;SDS011;9322;50.932;5.318;2022-07-21T02:45:46;25.60;;;16.20;;
18391;SDS011;9322;50.932;5.318;2022-07-21T02:48:12;29.35;;;17.63;;
18391;SDS011;9322;50.932;5.318;2022-07-21T02:50:39;28.80;;;16.85;;
18391;SDS011;9322;50.932;5.318;2022-07-21T02:53:08;28.50;;;17.60;;
18391;SDS011;9322;50.932;5.318;2022-07-21T02:55:35;26.92;;;16.90;;
18391;SDS011;9322;50.932;5.318;2022-07-21T03:00:41;30.53;;;18.37;;
18391;SDS011;9322;50.932;5.318;2022-07-21T03:03:11;29.10;;;16.38;;
18391;SDS011;9322;50.932;5.318;2022-07-21T03:05:37;28.30;;;17.80;;
18391;SDS011;9322;50.932;5.318;2022-07-21T03:08:03;25.60;;;16.63;;
18391;SDS011;9322;50.932;5.318;2022-07-21T03:10:29;35.20;;;17.00;;
18391;SDS011;9322;50.932;5.318;2022-07-21T03:12:55;33.13;;;17.57;;
18391;SDS011;9322;50.932;5.318;2022-07-21T03:15:21;34.67;;;18.33;;
18391;SDS011;9322;50.932;5.318;2022-07-21T03:17:46;32.55;;;18.02;;
18391;SDS011;9322;50.932;5.318;2022-07-21T03:20:12;28.60;;;17.58;;
18391;SDS011;9322;50.932;5.318;2022-07-21T03:22:38;28.02;;;15.93;;
18391;SDS011;9322;50.932;5.318;2022-07-21T03:25:04;25.63;;;17.92;;
18391;SDS011;9322;50.932;5.318;2022-07-21T03:27:30;30.63;;;18.23;;
18391;SDS011;9322;50.932;5.318;2022-07-21T03:30:00;28.03;;;16.63;;
18391;SDS011;9322;50.932;5.318;2022-07-21T03:32:33;29.25;;;17.45;;
18391;SDS011;9322;50.932;5.318;2022-07-21T03:34:59;28.85;;;17.20;;
18391;SDS011;9322;50.932;5.318;2022-07-21T03:37:25;28.50;;;17.15;;
18391;SDS011;9322;50.932;5.318;2022-07-21T03:39:51;32.85;;;17.23;;
18391;SDS011;9322;50.932;5.318;2022-07-21T03:42:17;29.52;;;17.38;;
18391;SDS011;9322;50.932;5.318;2022-07-21T03:44:43;26.95;;;17.02;;
18391;SDS011;9322;50.932;5.318;2022-07-21T03:47:08;28.67;;;17.15;;
18391;SDS011;9322;50.932;5.318;2022-07-21T03:49:34;31.17;;;17.53;;
18391;SDS011;9322;50.932;5.318;2022-07-21T03:52:00;34.28;;;17.95;;
18391;SDS011;9322;50.932;5.318;2022-07-21T03:54:25;23.87;;;16.33;;
18391;SDS011;9322;50.932;5.318;2022-07-21T03:56:51;29.60;;;16.65;;
18391;SDS011;9322;50.932;5.318;2022-07-21T03:59:16;31.45;;;16.60;;
18391;SDS011;9322;50.932;5.318;2022-07-21T04:01:42;33.27;;;17.90;;
18391;SDS011;9322;50.932;5.318;2022-07-21T04:04:08;30.33;;;17.40;;
18391;SDS011;9322;50.932;5.318;2022-07-21T04:06:34;29.35;;;18.00;;
18391;SDS011;9322;50.932;5.318;2022-07-21T04:09:00;37.10;;;18.93;;
18391;SDS011;9322;50.932;5.318;2022-07-21T04:11:25;29.85;;;18.00;;
18391;SDS011;9322;50.932;5.318;2022-07-21T04:13:51;34.43;;;18.40;;
18391;SDS011;9322;50.932;5.318;2022-07-21T04:16:17;28.02;;;17.77;;
18391;SDS011;9322;50.932;5.318;2022-07-21T04:18:43;30.48;;;16.92;;
18391;SDS011;9322;50.932;5.318;2022-07-21T04:21:08;33.20;;;18.00;;
18391;SDS011;9322;50.932;5.318;2022-07-21T04:23:34;34.08;;;17.73;;
18391;SDS011;9322;50.932;5.318;2022-07-21T04:25:59;29.70;;;18.03;;
18391;SDS011;9322;50.932;5.318;2022-07-21T04:28:25;31.50;;;18.42;;
18391;SDS011;9322;50.932;5.318;2022-07-21T04:30:51;28.15;;;17.77;;
18391;SDS011;9322;50.932;5.318;2022-07-21T04:33:17;27.60;;;17.77;;
18391;SDS011;9322;50.932;5.318;2022-07-21T04:35:42;28.47;;;17.47;;
18391;SDS011;9322;50.932;5.318;2022-07-21T04:38:08;30.00;;;17.95;;
18391;SDS011;9322;50.932;5.318;2022-07-21T04:40:35;25.05;;;16.83;;
18391;SDS011;9322;50.932;5.318;2022-07-21T04:43:01;34.50;;;17.10;;
18391;SDS011;9322;50.932;5.318;2022-07-21T04:45:27;28.65;;;17.02;;
18391;SDS011;9322;50.932;5.318;2022-07-21T04:47:53;23.58;;;14.85;;
18391;SDS011;9322;50.932;5.318;2022-07-21T04:50:21;23.17;;;14.65;;
18391;SDS011;9322;50.932;5.318;2022-07-21T04:52:48;30.17;;;15.77;;
18391;SDS011;9322;50.932;5.318;2022-07-21T04:55:15;25.77;;;13.68;;
18391;SDS011;9322;50.932;5.318;2022-07-21T04:57:46;24.73;;;15.00;;
18391;SDS011;9322;50.932;5.318;2022-07-21T05:00:15;22.63;;;13.95;;
18391;SDS011;9322;50.932;5.318;2022-07-21T05:02:46;26.98;;;13.40;;
18391;SDS011;9322;50.932;5.318;2022-07-21T05:05:13;25.98;;;13.65;;
18391;SDS011;9322;50.932;5.318;2022-07-21T05:07:39;25.83;;;12.43;;
18391;SDS011;9322;50.932;5.318;2022-07-21T05:10:06;21.23;;;12.57;;
18391;SDS011;9322;50.932;5.318;2022-07-21T05:12:33;22.58;;;12.60;;
18391;SDS011;9322;50.932;5.318;2022-07-21T05:14:59;24.52;;;11.88;;
18391;SDS011;9322;50.932;5.318;2022-07-21T05:17:24;21.33;;;12.52;;
18391;SDS011;9322;50.932;5.318;2022-07-21T05:19:50;21.90;;;11.23;;
18391;SDS011;9322;50.932;5.318;2022-07-21T05:22:16;20.52;;;11.55;;
18391;SDS011;9322;50.932;5.318;2022-07-21T05:24:42;22.52;;;11.63;;
18391;SDS011;9322;50.932;5.318;2022-07-21T05:27:08;18.92;;;12.00;;
18391;SDS011;9322;50.932;5.318;2022-07-21T05:29:34;26.35;;;11.95;;
18391;SDS011;9322;50.932;5.318;2022-07-21T05:31:59;15.85;;;11.27;;
18391;SDS011;9322;50.932;5.318;2022-07-21T05:34:25;22.05;;;11.38;;
18391;SDS011;9322;50.932;5.318;2022-07-21T05:36:51;20.35;;;11.30;;
18391;SDS011;9322;50.932;5.318;2022-07-21T05:39:18;21.77;;;11.50;;
18391;SDS011;9322;50.932;5.318;2022-07-21T05:41:44;24.15;;;12.05;;
18391;SDS011;9322;50.932;5.318;2022-07-21T05:44:10;24.50;;;12.48;;
18391;SDS011;9322;50.932;5.318;2022-07-21T05:46:35;26.25;;;12.32;;
18391;SDS011;9322;50.932;5.318;2022-07-21T05:49:01;20.30;;;12.52;;
18391;SDS011;9322;50.932;5.318;2022-07-21T05:51:27;28.98;;;12.80;;
18391;SDS011;9322;50.932;5.318;2022-07-21T05:53:52;28.13;;;12.80;;
18391;SDS011;9322;50.932;5.318;2022-07-21T05:56:19;26.55;;;13.82;;
18391;SDS011;9322;50.932;5.318;2022-07-21T05:58:45;24.67;;;13.25;;
18391;SDS011;9322;50.932;5.318;2022-07-21T06:01:12;24.27;;;13.18;;
18391;SDS011;9322;50.932;5.318;2022-07-21T06:03:41;27.42;;;12.43;;
18391;SDS011;9322;50.932;5.318;2022-07-21T06:06:07;22.75;;;13.20;;
18391;SDS011;9322;50.932;5.318;2022-07-21T06:08:33;20.98;;;13.07;;
18391;SDS011;9322;50.932;5.318;2022-07-21T06:11:01;30.27;;;13.07;;
18391;SDS011;9322;50.932;5.318;2022-07-21T06:13:26;17.40;;;12.30;;
18391;SDS011;9322;50.932;5.318;2022-07-21T06:15:52;23.67;;;12.88;;
18391;SDS011;9322;50.932;5.318;2022-07-21T06:18:18;24.60;;;12.05;;
18391;SDS011;9322;50.932;5.318;2022-07-21T06:20:43;22.13;;;11.77;;
18391;SDS011;9322;50.932;5.318;2022-07-21T06:23:09;18.08;;;11.55;;
18391;SDS011;9322;50.932;5.318;2022-07-21T06:25:35;21.83;;;12.18;;
18391;SDS011;9322;50.932;5.318;2022-07-21T06:28:01;21.10;;;12.40;;
18391;SDS011;9322;50.932;5.318;2022-07-21T06:30:26;22.85;;;11.68;;
18391;SDS011;9322;50.932;5.318;2022-07-21T06:32:52;20.88;;;11.60;;
18391;SDS011;9322;50.932;5.318;2022-07-21T06:35:18;24.33;;;12.63;;
18391;SDS011;9322;50.932;5.318;2022-07-21T06:37:44;21.40;;;12.10;;
18391;SDS011;9322;50.932;5.318;2022-07-21T06:40:11;22.45;;;13.15;;
18391;SDS011;9322;50.932;5.318;2022-07-21T06:42:37;20.08;;;12.43;;
18391;SDS011;9322;50.932;5.318;2022-07-21T06:45:03;21.67;;;11.98;;
18391;SDS011;9322;50.932;5.318;2022-07-21T06:47:29;23.83;;;13.20;;
18391;SDS011;9322;50.932;5.318;2022-07-21T06:49:55;23.15;;;12.27;;
18391;SDS011;9322;50.932;5.318;2022-07-21T06:52:22;22.48;;;12.80;;
18391;SDS011;9322;50.932;5.318;2022-07-21T06:54:48;23.17;;;13.05;;
18391;SDS011;9322;50.932;5.318;2022-07-21T06:57:14;27.52;;;13.82;;
18391;SDS011;9322;50.932;5.318;2022-07-21T06:59:39;25.98;;;14.20;;
18391;SDS011;9322;50.932;5.318;2022-07-21T07:02:05;31.13;;;13.88;;
18391;SDS011;9322;50.932;5.318;2022-07-21T07:04:31;28.77;;;14.50;;
18391;SDS011;9322;50.932;5.318;2022-07-21T07:06:57;27.85;;;14.48;;
18391;SDS011;9322;50.932;5.318;2022-07-21T07:09:23;30.63;;;14.65;;
18391;SDS011;9322;50.932;5.318;2022-07-21T07:11:49;30.88;;;14.60;;
18391;SDS011;9322;50.932;5.318;2022-07-21T07:14:17;28.17;;;14.05;;
18391;SDS011;9322;50.932;5.318;2022-07-21T07:16:43;25.75;;;13.95;;
18391;SDS011;9322;50.932;5.318;2022-07-21T07:19:09;26.55;;;14.23;;
18391;SDS011;9322;50.932;5.318;2022-07-21T07:21:35;29.08;;;14.15;;
18391;SDS011;9322;50.932;5.318;2022-07-21T07:24:01;29.38;;;14.75;;
18391;SDS011;9322;50.932;5.318;2022-07-21T07:26:27;27.08;;;14.50;;
18391;SDS011;9322;50.932;5.318;2022-07-21T07:28:53;31.58;;;15.00;;
18391;SDS011;9322;50.932;5.318;2022-07-21T07:31:19;30.17;;;15.15;;
18391;SDS011;9322;50.932;5.318;2022-07-21T07:33:45;33.20;;;15.80;;
18391;SDS011;9322;50.932;5.318;2022-07-21T07:36:11;27.83;;;15.02;;
18391;SDS011;9322;50.932;5.318;2022-07-21T07:38:38;32.63;;;15.43;;
18391;SDS011;9322;50.932;5.318;2022-07-21T07:41:05;37.80;;;17.25;;
18391;SDS011;9322;50.932;5.318;2022-07-21T07:43:30;34.88;;;15.77;;
18391;SDS011;9322;50.932;5.318;2022-07-21T07:45:56;32.45;;;16.25;;
18391;SDS011;9322;50.932;5.318;2022-07-21T07:48:22;32.10;;;16.08;;
18391;SDS011;9322;50.932;5.318;2022-07-21T07:50:47;29.67;;;16.40;;
18391;SDS011;9322;50.932;5.318;2022-07-21T07:53:13;31.60;;;16.95;;
18391;SDS011;9322;50.932;5.318;2022-07-21T07:55:39;34.17;;;16.80;;
18391;SDS011;9322;50.932;5.318;2022-07-21T07:58:04;32.92;;;17.13;;
18391;SDS011;9322;50.932;5.318;2022-07-21T08:00:30;31.80;;;17.15;;
18391;SDS011;9322;50.932;5.318;2022-07-21T08:02:56;42.67;;;18.13;;
18391;SDS011;9322;50.932;5.318;2022-07-21T08:05:22;36.72;;;17.02;;
18391;SDS011;9322;50.932;5.318;2022-07-21T08:07:47;34.70;;;17.60;;
18391;SDS011;9322;50.932;5.318;2022-07-21T08:10:13;33.58;;;17.55;;
18391;SDS011;9322;50.932;5.318;2022-07-21T08:12:39;40.60;;;18.27;;
18391;SDS011;9322;50.932;5.318;2022-07-21T08:15:05;36.45;;;18.27;;
18391;SDS011;9322;50.932;5.318;2022-07-21T08:17:31;33.42;;;16.83;;
18391;SDS011;9322;50.932;5.318;2022-07-21T08:19:57;38.60;;;18.23;;
18391;SDS011;9322;50.932;5.318;2022-07-21T08:22:23;36.22;;;17.90;;
18391;SDS011;9322;50.932;5.318;2022-07-21T08:24:49;36.40;;;17.65;;
18391;SDS011;9322;50.932;5.318;2022-07-21T08:27:14;36.70;;;18.35;;
18391;SDS011;9322;50.932;5.318;2022-07-21T08:29:40;34.53;;;16.73;;
18391;SDS011;9322;50.932;5.318;2022-07-21T08:32:06;33.85;;;17.27;;
18391;SDS011;9322;50.932;5.318;2022-07-21T08:34:32;36.30;;;17.25;;
18391;SDS011;9322;50.932;5.318;2022-07-21T08:36:58;30.45;;;16.95;;
18391;SDS011;9322;50.932;5.318;2022-07-21T08:39:24;32.85;;;16.80;;
18391;SDS011;9322;50.932;5.318;2022-07-21T08:41:50;36.03;;;16.38;;
18391;SDS011;9322;50.932;5.318;2022-07-21T08:44:17;33.72;;;17.02;;
18391;SDS011;9322;50.932;5.318;2022-07-21T08:46:45;26.55;;;16.73;;
18391;SDS011;9322;50.932;5.318;2022-07-21T08:49:14;38.40;;;19.88;;
18391;SDS011;9322;50.932;5.318;2022-07-21T08:51:44;34.30;;;18.08;;
18391;SDS011;9322;50.932;5.318;2022-07-21T08:54:09;32.03;;;17.80;;
18391;SDS011;9322;50.932;5.318;2022-07-21T08:56:35;30.63;;;16.73;;
18391;SDS011;9322;50.932;5.318;2022-07-21T08:59:01;32.00;;;16.25;;
18391;SDS011;9322;50.932;5.318;2022-07-21T09:01:27;31.33;;;17.35;;
18391;SDS011;9322;50.932;5.318;2022-07-21T09:03:53;28.83;;;16.75;;
18391;SDS011;9322;50.932;5.318;2022-07-21T09:06:19;30.52;;;16.00;;
18391;SDS011;9322;50.932;5.318;2022-07-21T09:08:47;26.83;;;15.68;;
18391;SDS011;9322;50.932;5.318;2022-07-21T09:13:48;32.67;;;17.05;;
18391;SDS011;9322;50.932;5.318;2022-07-21T09:19:19;35.72;;;17.85;;
18391;SDS011;9322;50.932;5.318;2022-07-21T09:21:50;33.45;;;19.02;;
18391;SDS011;9322;50.932;5.318;2022-07-21T09:24:21;37.63;;;19.92;;
18391;SDS011;9322;50.932;5.318;2022-07-21T09:34:47;49.28;;;22.90;;
18391;SDS011;9322;50.932;5.318;2022-07-21T09:37:15;50.40;;;24.33;;
18391;SDS011;9322;50.932;5.318;2022-07-21T09:42:12;51.28;;;24.33;;
18391;SDS011;9322;50.932;5.318;2022-07-21T09:44:38;50.17;;;24.55;;
18391;SDS011;9322;50.932;5.318;2022-07-21T09:47:14;52.60;;;25.55;;
18391;SDS011;9322;50.932;5.318;2022-07-21T09:49:41;55.97;;;24.63;;
18391;SDS011;9322;50.932;5.318;2022-07-21T09:52:50;54.22;;;25.85;;
18391;SDS011;9322;50.932;5.318;2022-07-21T09:55:00;54.25;;;25.10;;
18391;SDS011;9322;50.932;5.318;2022-07-21T09:57:31;55.72;;;24.95;;
18391;SDS011;9322;50.932;5.318;2022-07-21T09:59:57;57.15;;;25.67;;
18391;SDS011;9322;50.932;5.318;2022-07-21T10:02:25;52.17;;;24.88;;
18391;SDS011;9322;50.932;5.318;2022-07-21T10:04:54;54.13;;;25.15;;
18391;SDS011;9322;50.932;5.318;2022-07-21T10:07:26;53.58;;;25.60;;
18391;SDS011;9322;50.932;5.318;2022-07-21T10:09:52;54.45;;;25.92;;
18391;SDS011;9322;50.932;5.318;2022-07-21T10:12:18;61.42;;;26.55;;
18391;SDS011;9322;50.932;5.318;2022-07-21T10:14:44;55.13;;;27.02;;
18391;SDS011;9322;50.932;5.318;2022-07-21T10:17:12;56.95;;;26.38;;
18391;SDS011;9322;50.932;5.318;2022-07-21T10:19:42;51.10;;;26.02;;
18391;SDS011;9322;50.932;5.318;2022-07-21T10:22:36;57.67;;;26.17;;
18391;SDS011;9322;50.932;5.318;2022-07-21T10:25:24;47.53;;;22.67;;
18391;SDS011;9322;50.932;5.318;2022-07-21T10:30:42;45.25;;;22.70;;
18391;SDS011;9322;50.932;5.318;2022-07-21T10:33:13;36.25;;;20.85;;
18391;SDS011;9322;50.932;5.318;2022-07-21T10:35:46;40.05;;;21.17;;
18391;SDS011;9322;50.932;5.318;2022-07-21T10:38:30;39.20;;;19.92;;
18391;SDS011;9322;50.932;5.318;2022-07-21T10:40:59;32.45;;;17.48;;
18391;SDS011;9322;50.932;5.318;2022-07-21T10:43:35;35.65;;;16.63;;
18391;SDS011;9322;50.932;5.318;2022-07-21T10:46:02;27.23;;;16.10;;
18391;SDS011;9322;50.932;5.318;2022-07-21T10:51:03;27.33;;;15.55;;
18391;SDS011;9322;50.932;5.318;2022-07-21T10:53:32;29.38;;;15.57;;
18391;SDS011;9322;50.932;5.318;2022-07-21T10:55:58;23.67;;;14.43;;
18391;SDS011;9322;50.932;5.318;2022-07-21T10:58:25;25.55;;;15.30;;
18391;SDS011;9322;50.932;5.318;2022-07-21T11:00:58;24.27;;;15.10;;
18391;SDS011;9322;50.932;5.318;2022-07-21T11:03:31;23.38;;;14.57;;
18391;SDS011;9322;50.932;5.318;2022-07-21T11:12:15;18.45;;;11.98;;
18391;SDS011;9322;50.932;5.318;2022-07-21T11:14:39;17.92;;;11.55;;
18391;SDS011;9322;50.932;5.318;2022-07-21T11:17:28;22.45;;;11.50;;
18391;SDS011;9322;50.932;5.318;2022-07-21T11:19:55;16.42;;;10.20;;
18391;SDS011;9322;50.932;5.318;2022-07-21T11:24:55;15.90;;;8.38;;
18391;SDS011;9322;50.932;5.318;2022-07-21T11:27:26;12.82;;;8.18;;
18391;SDS011;9322;50.932;5.318;2022-07-21T11:29:54;14.20;;;8.38;;
18391;SDS011;9322;50.932;5.318;2022-07-21T11:32:22;13.50;;;9.10;;
18391;SDS011;9322;50.932;5.318;2022-07-21T11:34:53;12.10;;;6.97;;
18391;SDS011;9322;50.932;5.318;2022-07-21T11:39:54;14.30;;;6.78;;
18391;SDS011;9322;50.932;5.318;2022-07-21T11:42:20;8.98;;;6.63;;
18391;SDS011;9322;50.932;5.318;2022-07-21T11:44:47;11.65;;;6.22;;
18391;SDS011;9322;50.932;5.318;2022-07-21T11:47:15;11.75;;;6.22;;
18391;SDS011;9322;50.932;5.318;2022-07-21T11:49:41;11.55;;;6.55;;
18391;SDS011;9322;50.932;5.318;2022-07-21T11:52:09;10.63;;;6.10;;
18391;SDS011;9322;50.932;5.318;2022-07-21T11:54:50;11.07;;;5.95;;
18391;SDS011;9322;50.932;5.318;2022-07-21T11:57:18;11.82;;;5.60;;
18391;SDS011;9322;50.932;5.318;2022-07-21T11:59:45;8.25;;;5.32;;
18391;SDS011;9322;50.932;5.318;2022-07-21T12:04:43;10.75;;;5.88;;
18391;SDS011;9322;50.932;5.318;2022-07-21T12:07:53;8.75;;;5.70;;
18391;SDS011;9322;50.932;5.318;2022-07-21T12:10:05;9.00;;;6.28;;
18391;SDS011;9322;50.932;5.318;2022-07-21T12:12:40;11.55;;;6.13;;
18391;SDS011;9322;50.932;5.318;2022-07-21T12:15:12;13.05;;;6.88;;
18391;SDS011;9322;50.932;5.318;2022-07-21T12:17:39;16.98;;;7.72;;
18391;SDS011;9322;50.932;5.318;2022-07-21T12:20:07;12.18;;;7.13;;
18391;SDS011;9322;50.932;5.318;2022-07-21T12:22:34;12.43;;;7.57;;
18391;SDS011;9322;50.932;5.318;2022-07-21T12:25:12;13.48;;;7.50;;
18391;SDS011;9322;50.932;5.318;2022-07-21T12:27:40;15.10;;;8.27;;
18391;SDS011;9322;50.932;5.318;2022-07-21T12:30:08;13.32;;;7.38;;
18391;SDS011;9322;50.932;5.318;2022-07-21T12:32:53;13.65;;;7.40;;
18391;SDS011;9322;50.932;5.318;2022-07-21T12:35:24;11.75;;;6.20;;
18391;SDS011;9322;50.932;5.318;2022-07-21T12:38:01;12.18;;;6.20;;
18391;SDS011;9322;50.932;5.318;2022-07-21T12:40:35;12.20;;;6.13;;
18391;SDS011;9322;50.932;5.318;2022-07-21T12:43:21;12.82;;;6.10;;
18391;SDS011;9322;50.932;5.318;2022-07-21T12:45:55;10.90;;;6.20;;
18391;SDS011;9322;50.932;5.318;2022-07-21T12:48:29;14.45;;;5.75;;
18391;SDS011;9322;50.932;5.318;2022-07-21T12:50:57;9.27;;;4.90;;
18391;SDS011;9322;50.932;5.318;2022-07-21T12:53:30;6.07;;;4.30;;
18391;SDS011;9322;50.932;5.318;2022-07-21T12:55:58;9.95;;;4.97;;
18391;SDS011;9322;50.932;5.318;2022-07-21T12:58:24;10.85;;;5.18;;
18391;SDS011;9322;50.932;5.318;2022-07-21T13:00:50;11.00;;;4.90;;
18391;SDS011;9322;50.932;5.318;2022-07-21T13:03:15;8.88;;;3.95;;
18391;SDS011;9322;50.932;5.318;2022-07-21T13:05:41;7.05;;;4.05;;
18391;SDS011;9322;50.932;5.318;2022-07-21T13:08:07;8.40;;;4.50;;
18391;SDS011;9322;50.932;5.318;2022-07-21T13:10:33;7.55;;;4.15;;
18391;SDS011;9322;50.932;5.318;2022-07-21T13:12:58;6.35;;;3.78;;
18391;SDS011;9322;50.932;5.318;2022-07-21T13:15:24;7.95;;;3.70;;
18391;SDS011;9322;50.932;5.318;2022-07-21T13:17:49;8.60;;;3.58;;
18391;SDS011;9322;50.932;5.318;2022-07-21T13:20:15;5.05;;;3.47;;
18391;SDS011;9322;50.932;5.318;2022-07-21T13:22:41;5.82;;;3.22;;
18391;SDS011;9322;50.932;5.318;2022-07-21T13:25:08;7.93;;;2.83;;
18391;SDS011;9322;50.932;5.318;2022-07-21T13:27:35;5.13;;;3.05;;
18391;SDS011;9322;50.932;5.318;2022-07-21T13:30:02;4.30;;;2.75;;
18391;SDS011;9322;50.932;5.318;2022-07-21T13:32:28;3.38;;;2.60;;
18391;SDS011;9322;50.932;5.318;2022-07-21T13:34:54;4.88;;;2.92;;
18391;SDS011;9322;50.932;5.318;2022-07-21T13:37:20;5.80;;;2.55;;
18391;SDS011;9322;50.932;5.318;2022-07-21T13:39:46;5.68;;;2.47;;
18391;SDS011;9322;50.932;5.318;2022-07-21T13:42:11;7.07;;;2.75;;
18391;SDS011;9322;50.932;5.318;2022-07-21T13:44:37;6.22;;;2.97;;
18391;SDS011;9322;50.932;5.318;2022-07-21T13:47:02;5.57;;;3.30;;
18391;SDS011;9322;50.932;5.318;2022-07-21T13:49:28;5.22;;;3.42;;
18391;SDS011;9322;50.932;5.318;2022-07-21T13:51:54;5.50;;;4.00;;
18391;SDS011;9322;50.932;5.318;2022-07-21T13:54:20;9.43;;;4.55;;
18391;SDS011;9322;50.932;5.318;2022-07-21T13:56:46;8.90;;;3.60;;
18391;SDS011;9322;50.932;5.318;2022-07-21T13:59:12;7.40;;;4.00;;
18391;SDS011;9322;50.932;5.318;2022-07-21T14:01:37;7.50;;;3.72;;
18391;SDS011;9322;50.932;5.318;2022-07-21T14:04:03;8.70;;;3.95;;
18391;SDS011;9322;50.932;5.318;2022-07-21T14:06:29;7.68;;;3.60;;
18391;SDS011;9322;50.932;5.318;2022-07-21T14:08:55;7.45;;;3.80;;
18391;SDS011;9322;50.932;5.318;2022-07-21T14:11:20;9.35;;;4.22;;
18391;SDS011;9322;50.932;5.318;2022-07-21T14:13:48;9.98;;;4.15;;
18391;SDS011;9322;50.932;5.318;2022-07-21T14:16:14;8.52;;;4.40;;
18391;SDS011;9322;50.932;5.318;2022-07-21T14:18:39;7.18;;;4.40;;
18391;SDS011;9322;50.932;5.318;2022-07-21T14:21:05;9.10;;;4.43;;
18391;SDS011;9322;50.932;5.318;2022-07-21T14:23:31;9.32;;;4.82;;
18391;SDS011;9322;50.932;5.318;2022-07-21T14:25:57;9.00;;;4.50;;
18391;SDS011;9322;50.932;5.318;2022-07-21T14:28:23;16.17;;;5.45;;
18391;SDS011;9322;50.932;5.318;2022-07-21T14:30:51;13.45;;;4.50;;
18391;SDS011;9322;50.932;5.318;2022-07-21T14:33:16;10.98;;;5.25;;
18391;SDS011;9322;50.932;5.318;2022-07-21T14:35:42;12.32;;;5.60;;
18391;SDS011;9322;50.932;5.318;2022-07-21T14:38:08;9.85;;;5.47;;
18391;SDS011;9322;50.932;5.318;2022-07-21T14:40:35;12.13;;;5.30;;
18391;SDS011;9322;50.932;5.318;2022-07-21T14:43:01;12.15;;;4.63;;
18391;SDS011;9322;50.932;5.318;2022-07-21T14:45:26;11.60;;;5.00;;
18391;SDS011;9322;50.932;5.318;2022-07-21T14:47:53;13.82;;;5.35;;
18391;SDS011;9322;50.932;5.318;2022-07-21T14:50:20;15.40;;;5.55;;
18391;SDS011;9322;50.932;5.318;2022-07-21T14:52:47;13.25;;;5.03;;
18391;SDS011;9322;50.932;5.318;2022-07-21T14:55:12;16.70;;;6.45;;
18391;SDS011;9322;50.932;5.318;2022-07-21T14:57:38;14.30;;;5.53;;
18391;SDS011;9322;50.932;5.318;2022-07-21T15:00:04;18.48;;;5.45;;
18391;SDS011;9322;50.932;5.318;2022-07-21T15:02:32;20.45;;;5.88;;
18391;SDS011;9322;50.932;5.318;2022-07-21T15:04:58;18.60;;;5.70;;
18391;SDS011;9322;50.932;5.318;2022-07-21T15:07:24;15.45;;;5.60;;
18391;SDS011;9322;50.932;5.318;2022-07-21T15:09:49;13.77;;;5.43;;
18391;SDS011;9322;50.932;5.318;2022-07-21T15:12:15;11.27;;;5.22;;
18391;SDS011;9322;50.932;5.318;2022-07-21T15:14:41;15.60;;;5.25;;
18391;SDS011;9322;50.932;5.318;2022-07-21T15:17:06;15.23;;;5.72;;
18391;SDS011;9322;50.932;5.318;2022-07-21T15:19:33;18.40;;;6.65;;